sensor_id;sensor_type;location;lat;lon;timestamp;P1;durP1;ratioP1;P2;durP2;ratioP2
79173;SDS011;68599;49.142;9.124;2023-09-30T00:02:26;2.50;;;0.80;;
79173;SDS011;68599;49.142;9.124;2023-09-30T00:04:54;2.20;;;0.80;;
79173;SDS011;68599;49.142;9.124;2023-09-30T00:07:21;2.30;;;0.70;;
79173;SDS011;68599;49.142;9.124;2023-09-30T00:09:48;4.30;;;1.10;;
79173;SDS011;68599;49.142;9.124;2023-09-30T00:12:15;1.70;;;0.80;;
79173;SDS011;68599;49.142;9.124;2023-09-30T00:14:42;2.90;;;0.90;;
79173;SDS011;68599;49.142;9.124;2023-09-30T00:17:11;1.80;;;0.80;;
79173;SDS011;68599;49.142;9.124;2023-09-30T00:19:38;2.40;;;1.00;;
79173;SDS011;68599;49.142;9.124;2023-09-30T00:22:04;2.70;;;0.90;;
79173;SDS011;68599;49.142;9.124;2023-09-30T00:24:31;4.30;;;1.20;;
79173;SDS011;68599;49.142;9.124;2023-09-30T00:26:57;5.80;;;1.40;;
79173;SDS011;68599;49.142;9.124;2023-09-30T00:29:24;2.40;;;1.10;;
79173;SDS011;68599;49.142;9.124;2023-09-30T00:31:51;3.80;;;1.20;;
79173;SDS011;68599;49.142;9.124;2023-09-30T00:34:17;2.70;;;1.10;;
79173;SDS011;68599;49.142;9.124;2023-09-30T00:36:45;5.40;;;1.20;;
79173;SDS011;68599;49.142;9.124;2023-09-30T00:39:12;3.70;;;1.30;;
79173;SDS011;68599;49.142;9.124;2023-09-30T00:41:39;2.80;;;1.30;;
79173;SDS011;68599;49.142;9.124;2023-09-30T00:44:06;4.50;;;1.30;;
79173;SDS011;68599;49.142;9.124;2023-09-30T00:46:37;4.30;;;1.40;;
79173;SDS011;68599;49.142;9.124;2023-09-30T00:49:07;5.10;;;1.70;;
79173;SDS011;68599;49.142;9.124;2023-09-30T00:51:36;6.10;;;1.90;;
79173;SDS011;68599;49.142;9.124;2023-09-30T00:54:05;5.10;;;1.80;;
79173;SDS011;68599;49.142;9.124;2023-09-30T00:56:32;3.10;;;1.40;;
79173;SDS011;68599;49.142;9.124;2023-09-30T00:59:00;4.30;;;1.80;;
79173;SDS011;68599;49.142;9.124;2023-09-30T01:01:27;3.00;;;1.50;;
79173;SDS011;68599;49.142;9.124;2023-09-30T01:06:21;3.80;;;1.20;;
79173;SDS011;68599;49.142;9.124;2023-09-30T01:08:48;3.60;;;1.40;;
79173;SDS011;68599;49.142;9.124;2023-09-30T01:11:15;4.90;;;1.80;;
79173;SDS011;68599;49.142;9.124;2023-09-30T01:13:42;3.90;;;1.50;;
79173;SDS011;68599;49.142;9.124;2023-09-30T01:16:11;5.20;;;1.60;;
79173;SDS011;68599;49.142;9.124;2023-09-30T01:18:39;2.90;;;1.40;;
79173;SDS011;68599;49.142;9.124;2023-09-30T01:21:10;5.60;;;1.50;;
79173;SDS011;68599;49.142;9.124;2023-09-30T01:23:37;3.80;;;1.40;;
79173;SDS011;68599;49.142;9.124;2023-09-30T01:26:11;4.20;;;1.60;;
79173;SDS011;68599;49.142;9.124;2023-09-30T01:28:39;3.80;;;1.60;;
79173;SDS011;68599;49.142;9.124;2023-09-30T01:33:32;2.80;;;1.40;;
79173;SDS011;68599;49.142;9.124;2023-09-30T01:35:59;4.00;;;1.30;;
79173;SDS011;68599;49.142;9.124;2023-09-30T01:38:26;3.10;;;1.40;;
79173;SDS011;68599;49.142;9.124;2023-09-30T01:40:53;4.40;;;1.60;;
79173;SDS011;68599;49.142;9.124;2023-09-30T01:43:23;2.60;;;1.30;;
79173;SDS011;68599;49.142;9.124;2023-09-30T01:45:49;4.40;;;1.30;;
79173;SDS011;68599;49.142;9.124;2023-09-30T01:48:16;2.90;;;1.30;;
79173;SDS011;68599;49.142;9.124;2023-09-30T01:50:43;5.20;;;1.60;;
79173;SDS011;68599;49.142;9.124;2023-09-30T01:53:10;3.80;;;1.60;;
79173;SDS011;68599;49.142;9.124;2023-09-30T01:55:36;3.40;;;1.80;;
79173;SDS011;68599;49.142;9.124;2023-09-30T01:58:03;5.00;;;1.50;;
79173;SDS011;68599;49.142;9.124;2023-09-30T02:00:30;3.70;;;1.50;;
79173;SDS011;68599;49.142;9.124;2023-09-30T02:02:57;3.60;;;1.50;;
79173;SDS011;68599;49.142;9.124;2023-09-30T02:05:24;3.20;;;1.40;;
79173;SDS011;68599;49.142;9.124;2023-09-30T02:07:51;5.30;;;1.40;;
79173;SDS011;68599;49.142;9.124;2023-09-30T02:10:19;4.10;;;1.80;;
79173;SDS011;68599;49.142;9.124;2023-09-30T02:12:46;4.70;;;1.50;;
79173;SDS011;68599;49.142;9.124;2023-09-30T02:15:14;4.80;;;1.60;;
79173;SDS011;68599;49.142;9.124;2023-09-30T02:17:41;3.80;;;1.60;;
79173;SDS011;68599;49.142;9.124;2023-09-30T02:20:12;4.30;;;1.40;;
79173;SDS011;68599;49.142;9.124;2023-09-30T02:22:42;3.60;;;1.90;;
79173;SDS011;68599;49.142;9.124;2023-09-30T02:25:14;6.40;;;2.10;;
79173;SDS011;68599;49.142;9.124;2023-09-30T02:27:41;6.70;;;1.80;;
79173;SDS011;68599;49.142;9.124;2023-09-30T02:30:09;5.70;;;1.90;;
79173;SDS011;68599;49.142;9.124;2023-09-30T02:32:38;3.70;;;1.60;;
79173;SDS011;68599;49.142;9.124;2023-09-30T02:35:06;5.60;;;2.10;;
79173;SDS011;68599;49.142;9.124;2023-09-30T02:37:34;4.70;;;1.90;;
79173;SDS011;68599;49.142;9.124;2023-09-30T02:40:04;5.30;;;1.80;;
79173;SDS011;68599;49.142;9.124;2023-09-30T02:42:39;3.80;;;1.80;;
79173;SDS011;68599;49.142;9.124;2023-09-30T02:45:07;2.90;;;1.80;;
79173;SDS011;68599;49.142;9.124;2023-09-30T02:47:35;4.50;;;1.70;;
79173;SDS011;68599;49.142;9.124;2023-09-30T02:50:06;3.60;;;1.60;;
79173;SDS011;68599;49.142;9.124;2023-09-30T02:52:40;4.00;;;1.60;;
79173;SDS011;68599;49.142;9.124;2023-09-30T02:55:10;4.10;;;1.90;;
79173;SDS011;68599;49.142;9.124;2023-09-30T02:57:38;3.80;;;1.60;;
79173;SDS011;68599;49.142;9.124;2023-09-30T03:00:06;4.20;;;2.70;;
79173;SDS011;68599;49.142;9.124;2023-09-30T03:02:51;5.20;;;1.90;;
79173;SDS011;68599;49.142;9.124;2023-09-30T03:05:19;6.20;;;1.80;;
79173;SDS011;68599;49.142;9.124;2023-09-30T03:07:46;3.90;;;1.50;;
79173;SDS011;68599;49.142;9.124;2023-09-30T03:10:14;4.40;;;1.90;;
79173;SDS011;68599;49.142;9.124;2023-09-30T03:12:47;5.40;;;2.20;;
79173;SDS011;68599;49.142;9.124;2023-09-30T03:15:15;5.30;;;2.30;;
79173;SDS011;68599;49.142;9.124;2023-09-30T03:17:43;5.20;;;2.30;;
79173;SDS011;68599;49.142;9.124;2023-09-30T03:20:10;6.00;;;2.80;;
79173;SDS011;68599;49.142;9.124;2023-09-30T03:22:41;5.40;;;2.40;;
79173;SDS011;68599;49.142;9.124;2023-09-30T03:25:09;5.90;;;2.40;;
79173;SDS011;68599;49.142;9.124;2023-09-30T03:27:38;5.70;;;2.50;;
79173;SDS011;68599;49.142;9.124;2023-09-30T03:30:05;4.90;;;2.20;;
79173;SDS011;68599;49.142;9.124;2023-09-30T03:32:33;5.70;;;2.50;;
79173;SDS011;68599;49.142;9.124;2023-09-30T03:35:00;8.30;;;2.60;;
79173;SDS011;68599;49.142;9.124;2023-09-30T03:37:27;7.80;;;2.90;;
79173;SDS011;68599;49.142;9.124;2023-09-30T03:39:54;4.50;;;2.40;;
79173;SDS011;68599;49.142;9.124;2023-09-30T03:42:21;4.90;;;2.10;;
79173;SDS011;68599;49.142;9.124;2023-09-30T03:44:48;3.90;;;1.90;;
79173;SDS011;68599;49.142;9.124;2023-09-30T03:47:15;4.80;;;2.10;;
79173;SDS011;68599;49.142;9.124;2023-09-30T03:49:42;6.70;;;2.10;;
79173;SDS011;68599;49.142;9.124;2023-09-30T03:52:09;4.60;;;2.30;;
79173;SDS011;68599;49.142;9.124;2023-09-30T03:54:41;6.10;;;2.00;;
79173;SDS011;68599;49.142;9.124;2023-09-30T03:59:35;4.20;;;2.10;;
79173;SDS011;68599;49.142;9.124;2023-09-30T04:02:02;5.30;;;2.20;;
79173;SDS011;68599;49.142;9.124;2023-09-30T04:04:28;4.70;;;2.00;;
79173;SDS011;68599;49.142;9.124;2023-09-30T04:06:55;4.80;;;2.10;;
79173;SDS011;68599;49.142;9.124;2023-09-30T04:09:22;4.70;;;1.90;;
79173;SDS011;68599;49.142;9.124;2023-09-30T04:11:48;6.80;;;2.60;;
79173;SDS011;68599;49.142;9.124;2023-09-30T04:14:15;4.20;;;1.80;;
79173;SDS011;68599;49.142;9.124;2023-09-30T04:16:43;3.10;;;1.90;;
79173;SDS011;68599;49.142;9.124;2023-09-30T04:19:11;7.20;;;2.30;;
79173;SDS011;68599;49.142;9.124;2023-09-30T04:21:38;4.90;;;2.30;;
79173;SDS011;68599;49.142;9.124;2023-09-30T04:24:05;7.20;;;3.60;;
79173;SDS011;68599;49.142;9.124;2023-09-30T04:26:33;4.70;;;2.10;;
79173;SDS011;68599;49.142;9.124;2023-09-30T04:28:59;6.80;;;2.10;;
79173;SDS011;68599;49.142;9.124;2023-09-30T04:31:30;3.50;;;2.30;;
79173;SDS011;68599;49.142;9.124;2023-09-30T04:33:57;5.60;;;2.40;;
79173;SDS011;68599;49.142;9.124;2023-09-30T04:36:24;7.80;;;2.50;;
79173;SDS011;68599;49.142;9.124;2023-09-30T04:38:51;3.80;;;2.20;;
79173;SDS011;68599;49.142;9.124;2023-09-30T04:41:18;4.20;;;1.90;;
79173;SDS011;68599;49.142;9.124;2023-09-30T04:43:45;5.20;;;2.30;;
79173;SDS011;68599;49.142;9.124;2023-09-30T04:48:40;5.80;;;2.50;;
79173;SDS011;68599;49.142;9.124;2023-09-30T04:51:07;4.30;;;2.20;;
79173;SDS011;68599;49.142;9.124;2023-09-30T04:53:35;8.60;;;2.30;;
79173;SDS011;68599;49.142;9.124;2023-09-30T04:56:02;6.70;;;2.60;;
79173;SDS011;68599;49.142;9.124;2023-09-30T05:00:56;4.80;;;2.30;;
79173;SDS011;68599;49.142;9.124;2023-09-30T05:03:24;3.60;;;2.30;;
79173;SDS011;68599;49.142;9.124;2023-09-30T05:05:51;4.30;;;2.40;;
79173;SDS011;68599;49.142;9.124;2023-09-30T05:08:23;7.10;;;2.50;;
79173;SDS011;68599;49.142;9.124;2023-09-30T05:10:51;5.50;;;2.60;;
79173;SDS011;68599;49.142;9.124;2023-09-30T05:13:22;5.10;;;2.10;;
79173;SDS011;68599;49.142;9.124;2023-09-30T05:15:50;5.10;;;2.30;;
79173;SDS011;68599;49.142;9.124;2023-09-30T05:18:20;4.60;;;2.10;;
79173;SDS011;68599;49.142;9.124;2023-09-30T05:20:47;5.50;;;2.30;;
79173;SDS011;68599;49.142;9.124;2023-09-30T05:23:13;7.90;;;2.50;;
79173;SDS011;68599;49.142;9.124;2023-09-30T05:25:41;4.70;;;2.90;;
79173;SDS011;68599;49.142;9.124;2023-09-30T05:28:09;6.00;;;2.50;;
79173;SDS011;68599;49.142;9.124;2023-09-30T05:30:38;7.00;;;2.40;;
79173;SDS011;68599;49.142;9.124;2023-09-30T05:33:06;5.30;;;2.10;;
79173;SDS011;68599;49.142;9.124;2023-09-30T05:35:33;6.50;;;3.00;;
79173;SDS011;68599;49.142;9.124;2023-09-30T05:38:00;6.00;;;2.20;;
79173;SDS011;68599;49.142;9.124;2023-09-30T05:40:26;4.30;;;2.30;;
79173;SDS011;68599;49.142;9.124;2023-09-30T05:42:57;6.30;;;2.10;;
79173;SDS011;68599;49.142;9.124;2023-09-30T05:45:26;3.70;;;2.10;;
79173;SDS011;68599;49.142;9.124;2023-09-30T05:47:54;3.50;;;1.90;;
79173;SDS011;68599;49.142;9.124;2023-09-30T05:50:23;4.50;;;2.00;;
79173;SDS011;68599;49.142;9.124;2023-09-30T05:52:54;6.80;;;2.30;;
79173;SDS011;68599;49.142;9.124;2023-09-30T05:55:22;6.30;;;2.50;;
79173;SDS011;68599;49.142;9.124;2023-09-30T05:57:52;4.50;;;2.20;;
79173;SDS011;68599;49.142;9.124;2023-09-30T06:00:19;4.90;;;2.70;;
79173;SDS011;68599;49.142;9.124;2023-09-30T06:02:57;5.50;;;2.40;;
79173;SDS011;68599;49.142;9.124;2023-09-30T06:05:24;7.80;;;2.50;;
79173;SDS011;68599;49.142;9.124;2023-09-30T06:07:57;8.60;;;2.50;;
79173;SDS011;68599;49.142;9.124;2023-09-30T06:10:25;5.50;;;2.60;;
79173;SDS011;68599;49.142;9.124;2023-09-30T06:12:52;4.70;;;2.60;;
79173;SDS011;68599;49.142;9.124;2023-09-30T06:15:23;5.00;;;2.60;;
79173;SDS011;68599;49.142;9.124;2023-09-30T06:17:55;5.80;;;2.60;;
79173;SDS011;68599;49.142;9.124;2023-09-30T06:20:22;5.40;;;2.50;;
79173;SDS011;68599;49.142;9.124;2023-09-30T06:22:53;5.00;;;2.60;;
79173;SDS011;68599;49.142;9.124;2023-09-30T06:25:20;6.00;;;2.70;;
79173;SDS011;68599;49.142;9.124;2023-09-30T06:27:48;5.60;;;2.70;;
79173;SDS011;68599;49.142;9.124;2023-09-30T06:30:15;4.90;;;2.60;;
79173;SDS011;68599;49.142;9.124;2023-09-30T06:32:43;8.90;;;2.40;;
79173;SDS011;68599;49.142;9.124;2023-09-30T06:35:11;4.80;;;2.40;;
79173;SDS011;68599;49.142;9.124;2023-09-30T06:37:41;7.10;;;2.70;;
79173;SDS011;68599;49.142;9.124;2023-09-30T06:40:09;5.60;;;2.30;;
79173;SDS011;68599;49.142;9.124;2023-09-30T06:42:39;3.90;;;2.30;;
79173;SDS011;68599;49.142;9.124;2023-09-30T06:45:07;5.80;;;2.30;;
79173;SDS011;68599;49.142;9.124;2023-09-30T06:47:34;5.60;;;2.50;;
79173;SDS011;68599;49.142;9.124;2023-09-30T06:50:09;4.60;;;2.20;;
79173;SDS011;68599;49.142;9.124;2023-09-30T06:52:40;6.70;;;3.20;;
79173;SDS011;68599;49.142;9.124;2023-09-30T06:55:08;6.30;;;2.60;;
79173;SDS011;68599;49.142;9.124;2023-09-30T06:57:35;8.00;;;2.60;;
79173;SDS011;68599;49.142;9.124;2023-09-30T07:02:39;4.60;;;2.60;;
79173;SDS011;68599;49.142;9.124;2023-09-30T07:05:11;4.80;;;2.80;;
79173;SDS011;68599;49.142;9.124;2023-09-30T07:07:39;5.60;;;2.90;;
79173;SDS011;68599;49.142;9.124;2023-09-30T07:10:07;7.60;;;2.90;;
79173;SDS011;68599;49.142;9.124;2023-09-30T07:12:34;8.20;;;2.70;;
79173;SDS011;68599;49.142;9.124;2023-09-30T07:15:03;9.00;;;3.10;;
79173;SDS011;68599;49.142;9.124;2023-09-30T07:17:31;8.10;;;2.90;;
79173;SDS011;68599;49.142;9.124;2023-09-30T07:19:59;7.50;;;3.00;;
79173;SDS011;68599;49.142;9.124;2023-09-30T07:22:26;8.20;;;2.90;;
79173;SDS011;68599;49.142;9.124;2023-09-30T07:25:11;5.30;;;2.60;;
79173;SDS011;68599;49.142;9.124;2023-09-30T07:27:41;6.90;;;3.00;;
79173;SDS011;68599;49.142;9.124;2023-09-30T07:30:08;7.20;;;3.20;;
79173;SDS011;68599;49.142;9.124;2023-09-30T07:32:38;6.00;;;2.80;;
79173;SDS011;68599;49.142;9.124;2023-09-30T07:35:05;6.60;;;3.30;;
79173;SDS011;68599;49.142;9.124;2023-09-30T07:37:32;7.10;;;3.20;;
79173;SDS011;68599;49.142;9.124;2023-09-30T07:42:26;6.00;;;2.90;;
79173;SDS011;68599;49.142;9.124;2023-09-30T07:44:53;4.80;;;2.20;;
79173;SDS011;68599;49.142;9.124;2023-09-30T07:47:20;8.80;;;3.20;;
79173;SDS011;68599;49.142;9.124;2023-09-30T07:49:47;6.10;;;2.70;;
79173;SDS011;68599;49.142;9.124;2023-09-30T07:52:14;6.00;;;2.70;;
79173;SDS011;68599;49.142;9.124;2023-09-30T07:54:41;6.40;;;2.90;;
79173;SDS011;68599;49.142;9.124;2023-09-30T07:57:08;6.30;;;2.70;;
79173;SDS011;68599;49.142;9.124;2023-09-30T07:59:35;5.10;;;2.80;;
79173;SDS011;68599;49.142;9.124;2023-09-30T08:02:02;7.60;;;3.00;;
79173;SDS011;68599;49.142;9.124;2023-09-30T08:04:31;6.60;;;3.00;;
79173;SDS011;68599;49.142;9.124;2023-09-30T08:09:25;5.80;;;2.80;;
79173;SDS011;68599;49.142;9.124;2023-09-30T08:11:55;7.60;;;2.40;;
79173;SDS011;68599;49.142;9.124;2023-09-30T08:14:22;4.90;;;2.80;;
79173;SDS011;68599;49.142;9.124;2023-09-30T08:16:49;7.60;;;2.70;;
79173;SDS011;68599;49.142;9.124;2023-09-30T08:21:43;5.50;;;2.50;;
79173;SDS011;68599;49.142;9.124;2023-09-30T08:24:11;6.00;;;2.80;;
79173;SDS011;68599;49.142;9.124;2023-09-30T08:26:38;6.00;;;2.50;;
79173;SDS011;68599;49.142;9.124;2023-09-30T08:29:04;5.60;;;2.30;;
79173;SDS011;68599;49.142;9.124;2023-09-30T08:31:32;6.00;;;2.20;;
79173;SDS011;68599;49.142;9.124;2023-09-30T08:33:59;6.20;;;2.60;;
79173;SDS011;68599;49.142;9.124;2023-09-30T08:36:26;5.40;;;2.70;;
79173;SDS011;68599;49.142;9.124;2023-09-30T08:38:52;5.00;;;2.20;;
79173;SDS011;68599;49.142;9.124;2023-09-30T08:41:32;6.10;;;2.60;;
79173;SDS011;68599;49.142;9.124;2023-09-30T08:44:00;6.20;;;2.60;;
79173;SDS011;68599;49.142;9.124;2023-09-30T08:46:32;4.40;;;2.50;;
79173;SDS011;68599;49.142;9.124;2023-09-30T08:49:00;5.00;;;2.40;;
79173;SDS011;68599;49.142;9.124;2023-09-30T08:51:32;9.20;;;3.50;;
79173;SDS011;68599;49.142;9.124;2023-09-30T08:53:59;6.00;;;2.70;;
79173;SDS011;68599;49.142;9.124;2023-09-30T08:56:28;5.20;;;2.70;;
79173;SDS011;68599;49.142;9.124;2023-09-30T08:58:59;5.50;;;2.70;;
79173;SDS011;68599;49.142;9.124;2023-09-30T09:01:27;4.90;;;2.30;;
79173;SDS011;68599;49.142;9.124;2023-09-30T09:03:56;4.70;;;2.80;;
79173;SDS011;68599;49.142;9.124;2023-09-30T09:06:24;4.50;;;2.80;;
79173;SDS011;68599;49.142;9.124;2023-09-30T09:08:52;7.70;;;3.00;;
79173;SDS011;68599;49.142;9.124;2023-09-30T09:11:19;5.90;;;2.80;;
79173;SDS011;68599;49.142;9.124;2023-09-30T09:13:46;6.80;;;3.10;;
79173;SDS011;68599;49.142;9.124;2023-09-30T09:16:16;7.70;;;3.60;;
79173;SDS011;68599;49.142;9.124;2023-09-30T09:18:45;7.10;;;3.00;;
79173;SDS011;68599;49.142;9.124;2023-09-30T09:21:16;6.40;;;2.90;;
79173;SDS011;68599;49.142;9.124;2023-09-30T09:23:49;9.30;;;3.40;;
79173;SDS011;68599;49.142;9.124;2023-09-30T09:26:30;5.90;;;3.20;;
79173;SDS011;68599;49.142;9.124;2023-09-30T09:29:04;6.50;;;3.00;;
79173;SDS011;68599;49.142;9.124;2023-09-30T09:31:32;6.10;;;3.40;;
79173;SDS011;68599;49.142;9.124;2023-09-30T09:34:03;6.40;;;3.60;;
79173;SDS011;68599;49.142;9.124;2023-09-30T09:39:10;7.20;;;3.20;;
79173;SDS011;68599;49.142;9.124;2023-09-30T09:41:49;7.10;;;4.20;;
79173;SDS011;68599;49.142;9.124;2023-09-30T09:44:19;5.90;;;4.20;;
79173;SDS011;68599;49.142;9.124;2023-09-30T09:46:48;6.30;;;3.50;;
79173;SDS011;68599;49.142;9.124;2023-09-30T09:49:36;5.50;;;3.10;;
79173;SDS011;68599;49.142;9.124;2023-09-30T09:52:02;6.10;;;3.80;;
79173;SDS011;68599;49.142;9.124;2023-09-30T09:54:30;6.60;;;3.20;;
79173;SDS011;68599;49.142;9.124;2023-09-30T09:56:58;10.00;;;3.60;;
79173;SDS011;68599;49.142;9.124;2023-09-30T09:59:27;6.30;;;3.50;;
79173;SDS011;68599;49.142;9.124;2023-09-30T10:01:54;6.50;;;2.80;;
79173;SDS011;68599;49.142;9.124;2023-09-30T10:04:21;5.00;;;3.30;;
79173;SDS011;68599;49.142;9.124;2023-09-30T10:06:50;8.70;;;3.10;;
79173;SDS011;68599;49.142;9.124;2023-09-30T10:09:20;5.30;;;3.00;;
79173;SDS011;68599;49.142;9.124;2023-09-30T10:11:47;5.70;;;2.70;;
79173;SDS011;68599;49.142;9.124;2023-09-30T10:14:30;7.20;;;3.00;;
79173;SDS011;68599;49.142;9.124;2023-09-30T10:17:02;6.30;;;2.60;;
79173;SDS011;68599;49.142;9.124;2023-09-30T10:19:30;7.50;;;2.90;;
79173;SDS011;68599;49.142;9.124;2023-09-30T10:24:52;6.60;;;2.70;;
79173;SDS011;68599;49.142;9.124;2023-09-30T10:35:18;5.60;;;3.10;;
79173;SDS011;68599;49.142;9.124;2023-09-30T10:40:57;6.50;;;3.50;;
79173;SDS011;68599;49.142;9.124;2023-09-30T10:43:39;6.00;;;3.40;;
79173;SDS011;68599;49.142;9.124;2023-09-30T10:48:53;7.00;;;3.90;;
79173;SDS011;68599;49.142;9.124;2023-09-30T10:51:20;6.10;;;3.90;;
79173;SDS011;68599;49.142;9.124;2023-09-30T10:53:52;6.60;;;4.10;;
79173;SDS011;68599;49.142;9.124;2023-09-30T10:56:23;5.60;;;4.20;;
79173;SDS011;68599;49.142;9.124;2023-09-30T10:58:57;5.50;;;4.40;;
79173;SDS011;68599;49.142;9.124;2023-09-30T11:01:25;6.00;;;3.50;;
79173;SDS011;68599;49.142;9.124;2023-09-30T11:03:59;5.90;;;3.60;;
79173;SDS011;68599;49.142;9.124;2023-09-30T11:06:30;5.40;;;3.40;;
79173;SDS011;68599;49.142;9.124;2023-09-30T11:08:58;6.90;;;3.80;;
79173;SDS011;68599;49.142;9.124;2023-09-30T11:11:36;5.00;;;3.20;;
79173;SDS011;68599;49.142;9.124;2023-09-30T11:14:15;6.50;;;3.40;;
79173;SDS011;68599;49.142;9.124;2023-09-30T11:17:03;5.90;;;2.80;;
79173;SDS011;68599;49.142;9.124;2023-09-30T11:19:36;7.90;;;3.50;;
79173;SDS011;68599;49.142;9.124;2023-09-30T11:22:11;9.20;;;3.50;;
79173;SDS011;68599;49.142;9.124;2023-09-30T11:24:39;7.50;;;3.20;;
79173;SDS011;68599;49.142;9.124;2023-09-30T11:27:06;6.70;;;2.90;;
79173;SDS011;68599;49.142;9.124;2023-09-30T11:29:34;7.50;;;3.20;;
79173;SDS011;68599;49.142;9.124;2023-09-30T11:32:01;5.40;;;2.50;;
79173;SDS011;68599;49.142;9.124;2023-09-30T11:34:36;9.70;;;3.40;;
79173;SDS011;68599;49.142;9.124;2023-09-30T11:37:04;7.60;;;3.40;;
79173;SDS011;68599;49.142;9.124;2023-09-30T11:39:32;7.60;;;2.90;;
79173;SDS011;68599;49.142;9.124;2023-09-30T11:42:00;7.90;;;3.30;;
79173;SDS011;68599;49.142;9.124;2023-09-30T11:44:28;8.50;;;3.40;;
79173;SDS011;68599;49.142;9.124;2023-09-30T11:49:32;5.40;;;3.40;;
79173;SDS011;68599;49.142;9.124;2023-09-30T11:52:06;7.40;;;3.30;;
79173;SDS011;68599;49.142;9.124;2023-09-30T11:54:36;5.60;;;3.60;;
79173;SDS011;68599;49.142;9.124;2023-09-30T11:57:10;7.00;;;3.60;;
79173;SDS011;68599;49.142;9.124;2023-09-30T11:59:42;5.90;;;3.20;;
79173;SDS011;68599;49.142;9.124;2023-09-30T12:02:11;7.40;;;3.70;;
79173;SDS011;68599;49.142;9.124;2023-09-30T12:04:44;7.80;;;3.90;;
79173;SDS011;68599;49.142;9.124;2023-09-30T12:07:14;7.80;;;3.40;;
79173;SDS011;68599;49.142;9.124;2023-09-30T12:09:41;8.40;;;4.50;;
79173;SDS011;68599;49.142;9.124;2023-09-30T12:12:24;7.60;;;3.50;;
79173;SDS011;68599;49.142;9.124;2023-09-30T12:14:51;7.50;;;4.10;;
79173;SDS011;68599;49.142;9.124;2023-09-30T12:17:18;7.90;;;3.70;;
79173;SDS011;68599;49.142;9.124;2023-09-30T12:19:47;6.30;;;3.50;;
79173;SDS011;68599;49.142;9.124;2023-09-30T12:22:14;7.80;;;3.50;;
79173;SDS011;68599;49.142;9.124;2023-09-30T12:24:41;7.30;;;3.50;;
79173;SDS011;68599;49.142;9.124;2023-09-30T12:29:34;7.10;;;3.20;;
79173;SDS011;68599;49.142;9.124;2023-09-30T12:32:01;7.50;;;4.00;;
79173;SDS011;68599;49.142;9.124;2023-09-30T12:34:28;7.60;;;3.60;;
79173;SDS011;68599;49.142;9.124;2023-09-30T12:36:55;7.60;;;3.40;;
79173;SDS011;68599;49.142;9.124;2023-09-30T12:39:23;6.70;;;4.00;;
79173;SDS011;68599;49.142;9.124;2023-09-30T12:41:53;6.70;;;3.70;;
79173;SDS011;68599;49.142;9.124;2023-09-30T12:44:20;7.20;;;3.70;;
79173;SDS011;68599;49.142;9.124;2023-09-30T12:46:47;9.60;;;4.30;;
79173;SDS011;68599;49.142;9.124;2023-09-30T12:49:14;8.40;;;4.40;;
79173;SDS011;68599;49.142;9.124;2023-09-30T12:51:41;7.60;;;4.20;;
79173;SDS011;68599;49.142;9.124;2023-09-30T12:54:08;8.60;;;4.50;;
79173;SDS011;68599;49.142;9.124;2023-09-30T12:56:35;8.40;;;4.30;;
79173;SDS011;68599;49.142;9.124;2023-09-30T12:59:02;9.20;;;4.50;;
79173;SDS011;68599;49.142;9.124;2023-09-30T13:01:29;6.20;;;3.50;;
79173;SDS011;68599;49.142;9.124;2023-09-30T13:04:01;8.20;;;4.40;;
79173;SDS011;68599;49.142;9.124;2023-09-30T13:06:29;12.70;;;4.50;;
79173;SDS011;68599;49.142;9.124;2023-09-30T13:08:59;6.40;;;4.10;;
79173;SDS011;68599;49.142;9.124;2023-09-30T13:11:26;7.40;;;4.30;;
79173;SDS011;68599;49.142;9.124;2023-09-30T13:13:53;6.90;;;4.10;;
79173;SDS011;68599;49.142;9.124;2023-09-30T13:18:47;8.90;;;4.90;;
79173;SDS011;68599;49.142;9.124;2023-09-30T13:21:14;7.00;;;4.30;;
79173;SDS011;68599;49.142;9.124;2023-09-30T13:23:41;7.00;;;4.10;;
79173;SDS011;68599;49.142;9.124;2023-09-30T13:26:08;7.60;;;4.50;;
79173;SDS011;68599;49.142;9.124;2023-09-30T13:28:35;12.90;;;4.10;;
79173;SDS011;68599;49.142;9.124;2023-09-30T13:31:01;8.30;;;4.20;;
79173;SDS011;68599;49.142;9.124;2023-09-30T13:35:56;7.90;;;4.10;;
79173;SDS011;68599;49.142;9.124;2023-09-30T13:38:22;8.70;;;4.70;;
79173;SDS011;68599;49.142;9.124;2023-09-30T13:40:49;7.60;;;4.40;;
79173;SDS011;68599;49.142;9.124;2023-09-30T13:43:15;8.80;;;4.50;;
79173;SDS011;68599;49.142;9.124;2023-09-30T13:45:42;8.50;;;4.60;;
79173;SDS011;68599;49.142;9.124;2023-09-30T13:50:35;8.00;;;3.90;;
79173;SDS011;68599;49.142;9.124;2023-09-30T13:55:29;7.40;;;3.80;;
79173;SDS011;68599;49.142;9.124;2023-09-30T13:57:56;7.80;;;4.00;;
79173;SDS011;68599;49.142;9.124;2023-09-30T14:00:23;7.10;;;3.10;;
79173;SDS011;68599;49.142;9.124;2023-09-30T14:02:50;8.70;;;3.70;;
79173;SDS011;68599;49.142;9.124;2023-09-30T14:05:18;8.60;;;4.00;;
79173;SDS011;68599;49.142;9.124;2023-09-30T14:07:46;7.90;;;3.50;;
79173;SDS011;68599;49.142;9.124;2023-09-30T14:10:14;8.20;;;4.20;;
79173;SDS011;68599;49.142;9.124;2023-09-30T14:12:41;8.60;;;4.00;;
79173;SDS011;68599;49.142;9.124;2023-09-30T14:15:09;10.00;;;3.70;;
79173;SDS011;68599;49.142;9.124;2023-09-30T14:17:36;7.40;;;3.40;;
79173;SDS011;68599;49.142;9.124;2023-09-30T14:20:04;8.00;;;3.60;;
79173;SDS011;68599;49.142;9.124;2023-09-30T14:22:32;8.10;;;4.10;;
79173;SDS011;68599;49.142;9.124;2023-09-30T14:25:00;6.70;;;3.10;;
79173;SDS011;68599;49.142;9.124;2023-09-30T14:27:27;6.80;;;3.50;;
79173;SDS011;68599;49.142;9.124;2023-09-30T14:29:54;11.50;;;3.20;;
79173;SDS011;68599;49.142;9.124;2023-09-30T14:32:21;8.50;;;3.80;;
79173;SDS011;68599;49.142;9.124;2023-09-30T14:34:48;7.70;;;3.20;;
79173;SDS011;68599;49.142;9.124;2023-09-30T14:39:41;9.40;;;3.50;;
79173;SDS011;68599;49.142;9.124;2023-09-30T14:42:08;7.70;;;3.10;;
79173;SDS011;68599;49.142;9.124;2023-09-30T14:44:34;9.30;;;3.40;;
79173;SDS011;68599;49.142;9.124;2023-09-30T14:47:01;7.30;;;3.50;;
79173;SDS011;68599;49.142;9.124;2023-09-30T14:49:28;6.70;;;3.50;;
79173;SDS011;68599;49.142;9.124;2023-09-30T14:51:57;6.80;;;3.10;;
79173;SDS011;68599;49.142;9.124;2023-09-30T14:56:51;8.60;;;4.10;;
79173;SDS011;68599;49.142;9.124;2023-09-30T14:59:19;7.60;;;3.50;;
79173;SDS011;68599;49.142;9.124;2023-09-30T15:01:46;8.00;;;3.70;;
79173;SDS011;68599;49.142;9.124;2023-09-30T15:04:13;8.90;;;3.30;;
79173;SDS011;68599;49.142;9.124;2023-09-30T15:06:39;8.50;;;3.80;;
79173;SDS011;68599;49.142;9.124;2023-09-30T15:09:07;7.80;;;3.40;;
79173;SDS011;68599;49.142;9.124;2023-09-30T15:11:38;8.60;;;3.40;;
79173;SDS011;68599;49.142;9.124;2023-09-30T15:14:06;10.40;;;3.60;;
79173;SDS011;68599;49.142;9.124;2023-09-30T15:16:33;7.70;;;3.50;;
79173;SDS011;68599;49.142;9.124;2023-09-30T15:19:01;8.60;;;3.60;;
79173;SDS011;68599;49.142;9.124;2023-09-30T15:21:29;7.60;;;3.10;;
79173;SDS011;68599;49.142;9.124;2023-09-30T15:23:56;9.10;;;3.70;;
79173;SDS011;68599;49.142;9.124;2023-09-30T15:26:22;9.40;;;3.40;;
79173;SDS011;68599;49.142;9.124;2023-09-30T15:28:49;8.60;;;3.40;;
79173;SDS011;68599;49.142;9.124;2023-09-30T15:31:16;10.70;;;4.00;;
79173;SDS011;68599;49.142;9.124;2023-09-30T15:33:43;9.60;;;3.90;;
79173;SDS011;68599;49.142;9.124;2023-09-30T15:36:13;7.60;;;3.50;;
79173;SDS011;68599;49.142;9.124;2023-09-30T15:38:44;10.20;;;3.80;;
79173;SDS011;68599;49.142;9.124;2023-09-30T15:41:13;10.90;;;3.80;;
79173;SDS011;68599;49.142;9.124;2023-09-30T15:43:41;10.80;;;3.40;;
79173;SDS011;68599;49.142;9.124;2023-09-30T15:46:09;9.60;;;4.20;;
79173;SDS011;68599;49.142;9.124;2023-09-30T15:48:36;8.00;;;3.50;;
79173;SDS011;68599;49.142;9.124;2023-09-30T15:51:03;11.10;;;4.60;;
79173;SDS011;68599;49.142;9.124;2023-09-30T15:53:30;9.50;;;4.30;;
79173;SDS011;68599;49.142;9.124;2023-09-30T15:56:00;9.20;;;4.30;;
79173;SDS011;68599;49.142;9.124;2023-09-30T15:58:28;8.70;;;3.70;;